sensor_id;sensor_type;location;lat;lon;timestamp;P1;durP1;ratioP1;P2;durP2;ratioP2
43152;SDS011;28756;49.064;9.290;2023-12-20T00:00:54;8.70;;;5.60;;
43152;SDS011;28756;49.064;9.290;2023-12-20T00:03:20;5.65;;;4.57;;
43152;SDS011;28756;49.064;9.290;2023-12-20T00:05:46;8.32;;;5.78;;
43152;SDS011;28756;49.064;9.290;2023-12-20T00:08:12;6.13;;;4.63;;
43152;SDS011;28756;49.064;9.290;2023-12-20T00:10:38;7.05;;;5.80;;
43152;SDS011;28756;49.064;9.290;2023-12-20T00:13:03;6.47;;;5.03;;
43152;SDS011;28756;49.064;9.290;2023-12-20T00:15:29;6.35;;;4.32;;
43152;SDS011;28756;49.064;9.290;2023-12-20T00:17:55;6.55;;;4.95;;
43152;SDS011;28756;49.064;9.290;2023-12-20T00:20:20;7.13;;;4.40;;
43152;SDS011;28756;49.064;9.290;2023-12-20T00:22:46;5.50;;;4.45;;
43152;SDS011;28756;49.064;9.290;2023-12-20T00:25:11;5.78;;;3.97;;
43152;SDS011;28756;49.064;9.290;2023-12-20T00:27:37;5.65;;;4.40;;
43152;SDS011;28756;49.064;9.290;2023-12-20T00:30:03;6.13;;;4.55;;
43152;SDS011;28756;49.064;9.290;2023-12-20T00:32:28;7.53;;;5.10;;
43152;SDS011;28756;49.064;9.290;2023-12-20T00:34:54;6.28;;;4.88;;
43152;SDS011;28756;49.064;9.290;2023-12-20T00:37:19;5.97;;;4.65;;
43152;SDS011;28756;49.064;9.290;2023-12-20T00:39:45;5.95;;;4.30;;
43152;SDS011;28756;49.064;9.290;2023-12-20T00:42:10;9.20;;;5.78;;
43152;SDS011;28756;49.064;9.290;2023-12-20T00:44:36;6.65;;;5.10;;
43152;SDS011;28756;49.064;9.290;2023-12-20T00:47:02;6.65;;;4.45;;
43152;SDS011;28756;49.064;9.290;2023-12-20T00:49:27;6.55;;;4.72;;
43152;SDS011;28756;49.064;9.290;2023-12-20T00:51:53;6.10;;;5.10;;
43152;SDS011;28756;49.064;9.290;2023-12-20T00:54:19;7.63;;;5.22;;
43152;SDS011;28756;49.064;9.290;2023-12-20T00:56:44;6.05;;;4.75;;
43152;SDS011;28756;49.064;9.290;2023-12-20T00:59:10;8.55;;;6.15;;
43152;SDS011;28756;49.064;9.290;2023-12-20T01:01:35;8.32;;;6.95;;
43152;SDS011;28756;49.064;9.290;2023-12-20T01:04:01;7.05;;;5.50;;
43152;SDS011;28756;49.064;9.290;2023-12-20T01:06:27;6.72;;;5.45;;
43152;SDS011;28756;49.064;9.290;2023-12-20T01:08:52;6.80;;;5.00;;
43152;SDS011;28756;49.064;9.290;2023-12-20T01:11:18;7.78;;;5.28;;
43152;SDS011;28756;49.064;9.290;2023-12-20T01:13:43;7.50;;;5.93;;
43152;SDS011;28756;49.064;9.290;2023-12-20T01:16:10;9.75;;;6.10;;
43152;SDS011;28756;49.064;9.290;2023-12-20T01:18:36;7.70;;;5.78;;
43152;SDS011;28756;49.064;9.290;2023-12-20T01:21:02;5.53;;;4.50;;
43152;SDS011;28756;49.064;9.290;2023-12-20T01:23:30;7.28;;;5.68;;
43152;SDS011;28756;49.064;9.290;2023-12-20T01:25:57;8.40;;;6.88;;
43152;SDS011;28756;49.064;9.290;2023-12-20T01:28:24;12.23;;;6.88;;
43152;SDS011;28756;49.064;9.290;2023-12-20T01:30:50;8.45;;;6.47;;
43152;SDS011;28756;49.064;9.290;2023-12-20T01:33:16;8.43;;;6.72;;
43152;SDS011;28756;49.064;9.290;2023-12-20T01:35:41;8.82;;;6.65;;
43152;SDS011;28756;49.064;9.290;2023-12-20T01:38:07;7.53;;;5.75;;
43152;SDS011;28756;49.064;9.290;2023-12-20T01:40:32;6.32;;;5.35;;
43152;SDS011;28756;49.064;9.290;2023-12-20T01:43:16;7.38;;;5.38;;
43152;SDS011;28756;49.064;9.290;2023-12-20T01:45:42;5.35;;;4.32;;
43152;SDS011;28756;49.064;9.290;2023-12-20T01:48:08;5.20;;;4.35;;
43152;SDS011;28756;49.064;9.290;2023-12-20T01:50:34;5.30;;;4.47;;
43152;SDS011;28756;49.064;9.290;2023-12-20T01:53:02;4.78;;;4.18;;
43152;SDS011;28756;49.064;9.290;2023-12-20T01:55:28;5.32;;;4.28;;
43152;SDS011;28756;49.064;9.290;2023-12-20T01:57:56;6.60;;;5.03;;
43152;SDS011;28756;49.064;9.290;2023-12-20T02:00:22;4.95;;;4.38;;
43152;SDS011;28756;49.064;9.290;2023-12-20T02:02:48;6.25;;;5.30;;
43152;SDS011;28756;49.064;9.290;2023-12-20T02:05:16;5.90;;;5.10;;
43152;SDS011;28756;49.064;9.290;2023-12-20T02:07:41;5.03;;;4.15;;
43152;SDS011;28756;49.064;9.290;2023-12-20T02:10:07;5.38;;;4.55;;
43152;SDS011;28756;49.064;9.290;2023-12-20T02:12:33;5.43;;;4.07;;
43152;SDS011;28756;49.064;9.290;2023-12-20T02:14:58;6.28;;;3.78;;
43152;SDS011;28756;49.064;9.290;2023-12-20T02:17:24;5.00;;;4.00;;
43152;SDS011;28756;49.064;9.290;2023-12-20T02:19:50;5.38;;;3.50;;
43152;SDS011;28756;49.064;9.290;2023-12-20T02:22:16;2.92;;;2.40;;
43152;SDS011;28756;49.064;9.290;2023-12-20T02:24:41;1.88;;;1.67;;
43152;SDS011;28756;49.064;9.290;2023-12-20T02:27:07;1.60;;;1.38;;
43152;SDS011;28756;49.064;9.290;2023-12-20T02:29:33;1.90;;;1.20;;
43152;SDS011;28756;49.064;9.290;2023-12-20T02:32:00;1.10;;;1.00;;
43152;SDS011;28756;49.064;9.290;2023-12-20T02:34:25;1.10;;;1.00;;
43152;SDS011;28756;49.064;9.290;2023-12-20T02:36:51;1.00;;;0.90;;
43152;SDS011;28756;49.064;9.290;2023-12-20T02:39:17;0.98;;;0.60;;
43152;SDS011;28756;49.064;9.290;2023-12-20T02:41:44;1.38;;;0.80;;
43152;SDS011;28756;49.064;9.290;2023-12-20T02:44:09;0.90;;;0.80;;
43152;SDS011;28756;49.064;9.290;2023-12-20T02:46:35;0.93;;;0.80;;
43152;SDS011;28756;49.064;9.290;2023-12-20T02:49:00;1.05;;;0.88;;
43152;SDS011;28756;49.064;9.290;2023-12-20T02:51:26;1.00;;;0.70;;
43152;SDS011;28756;49.064;9.290;2023-12-20T02:53:51;0.90;;;0.77;;
43152;SDS011;28756;49.064;9.290;2023-12-20T02:56:17;1.02;;;0.70;;
43152;SDS011;28756;49.064;9.290;2023-12-20T02:58:43;2.20;;;0.77;;
43152;SDS011;28756;49.064;9.290;2023-12-20T03:01:08;1.10;;;0.70;;
43152;SDS011;28756;49.064;9.290;2023-12-20T03:03:34;0.80;;;0.65;;
43152;SDS011;28756;49.064;9.290;2023-12-20T03:05:59;0.93;;;0.82;;
43152;SDS011;28756;49.064;9.290;2023-12-20T03:08:25;0.68;;;0.60;;
43152;SDS011;28756;49.064;9.290;2023-12-20T03:10:50;0.90;;;0.80;;
43152;SDS011;28756;49.064;9.290;2023-12-20T03:13:16;1.00;;;0.70;;
43152;SDS011;28756;49.064;9.290;2023-12-20T03:15:42;1.50;;;0.70;;
43152;SDS011;28756;49.064;9.290;2023-12-20T03:18:07;0.50;;;0.50;;
43152;SDS011;28756;49.064;9.290;2023-12-20T03:20:33;1.40;;;0.50;;
43152;SDS011;28756;49.064;9.290;2023-12-20T03:22:59;0.88;;;0.60;;
43152;SDS011;28756;49.064;9.290;2023-12-20T03:25:25;0.50;;;0.47;;
43152;SDS011;28756;49.064;9.290;2023-12-20T03:27:51;0.73;;;0.52;;
43152;SDS011;28756;49.064;9.290;2023-12-20T03:30:17;0.85;;;0.50;;
43152;SDS011;28756;49.064;9.290;2023-12-20T03:32:43;0.50;;;0.50;;
43152;SDS011;28756;49.064;9.290;2023-12-20T03:35:09;1.85;;;0.60;;
43152;SDS011;28756;49.064;9.290;2023-12-20T03:37:35;0.70;;;0.52;;
43152;SDS011;28756;49.064;9.290;2023-12-20T03:40:01;1.80;;;0.60;;
43152;SDS011;28756;49.064;9.290;2023-12-20T03:42:26;0.95;;;0.60;;
43152;SDS011;28756;49.064;9.290;2023-12-20T03:44:52;1.00;;;0.80;;
43152;SDS011;28756;49.064;9.290;2023-12-20T03:47:17;1.33;;;0.80;;
43152;SDS011;28756;49.064;9.290;2023-12-20T03:49:43;1.55;;;0.98;;
43152;SDS011;28756;49.064;9.290;2023-12-20T03:52:08;0.68;;;0.68;;
43152;SDS011;28756;49.064;9.290;2023-12-20T03:54:37;0.70;;;0.68;;
43152;SDS011;28756;49.064;9.290;2023-12-20T03:57:03;1.25;;;0.73;;
43152;SDS011;28756;49.064;9.290;2023-12-20T03:59:29;0.73;;;0.70;;
43152;SDS011;28756;49.064;9.290;2023-12-20T04:01:55;1.23;;;0.60;;
43152;SDS011;28756;49.064;9.290;2023-12-20T04:04:20;0.73;;;0.70;;
43152;SDS011;28756;49.064;9.290;2023-12-20T04:06:46;1.02;;;0.70;;
43152;SDS011;28756;49.064;9.290;2023-12-20T04:09:11;1.13;;;0.80;;
43152;SDS011;28756;49.064;9.290;2023-12-20T04:11:37;1.70;;;0.85;;
43152;SDS011;28756;49.064;9.290;2023-12-20T04:14:03;0.60;;;0.60;;
43152;SDS011;28756;49.064;9.290;2023-12-20T04:16:32;0.80;;;0.80;;
43152;SDS011;28756;49.064;9.290;2023-12-20T04:18:57;1.30;;;0.70;;
43152;SDS011;28756;49.064;9.290;2023-12-20T04:21:23;0.98;;;0.70;;
43152;SDS011;28756;49.064;9.290;2023-12-20T04:23:49;0.82;;;0.65;;
43152;SDS011;28756;49.064;9.290;2023-12-20T04:26:14;1.25;;;0.60;;
43152;SDS011;28756;49.064;9.290;2023-12-20T04:28:40;1.27;;;0.60;;
43152;SDS011;28756;49.064;9.290;2023-12-20T04:31:05;0.60;;;0.57;;
43152;SDS011;28756;49.064;9.290;2023-12-20T04:33:31;0.95;;;0.80;;
43152;SDS011;28756;49.064;9.290;2023-12-20T04:35:56;0.60;;;0.60;;
43152;SDS011;28756;49.064;9.290;2023-12-20T04:38:22;0.95;;;0.60;;
43152;SDS011;28756;49.064;9.290;2023-12-20T04:40:48;0.60;;;0.50;;
43152;SDS011;28756;49.064;9.290;2023-12-20T04:43:13;0.70;;;0.60;;
43152;SDS011;28756;49.064;9.290;2023-12-20T04:45:39;0.68;;;0.55;;
43152;SDS011;28756;49.064;9.290;2023-12-20T04:48:05;0.40;;;0.40;;
43152;SDS011;28756;49.064;9.290;2023-12-20T04:50:31;0.52;;;0.50;;
43152;SDS011;28756;49.064;9.290;2023-12-20T04:52:56;1.80;;;0.60;;
43152;SDS011;28756;49.064;9.290;2023-12-20T04:55:22;1.05;;;0.70;;
43152;SDS011;28756;49.064;9.290;2023-12-20T04:57:47;0.80;;;0.60;;
43152;SDS011;28756;49.064;9.290;2023-12-20T05:00:13;0.68;;;0.60;;
43152;SDS011;28756;49.064;9.290;2023-12-20T05:02:40;1.02;;;0.60;;
43152;SDS011;28756;49.064;9.290;2023-12-20T05:05:06;0.70;;;0.65;;
43152;SDS011;28756;49.064;9.290;2023-12-20T05:07:32;0.75;;;0.60;;
43152;SDS011;28756;49.064;9.290;2023-12-20T05:09:58;1.50;;;0.80;;
43152;SDS011;28756;49.064;9.290;2023-12-20T05:12:23;0.85;;;0.65;;
43152;SDS011;28756;49.064;9.290;2023-12-20T05:14:49;0.70;;;0.70;;
43152;SDS011;28756;49.064;9.290;2023-12-20T05:17:16;1.73;;;0.95;;
43152;SDS011;28756;49.064;9.290;2023-12-20T05:19:41;1.80;;;0.73;;
43152;SDS011;28756;49.064;9.290;2023-12-20T05:22:07;1.30;;;0.90;;
43152;SDS011;28756;49.064;9.290;2023-12-20T05:24:32;2.00;;;1.10;;
43152;SDS011;28756;49.064;9.290;2023-12-20T05:26:58;1.45;;;1.35;;
43152;SDS011;28756;49.064;9.290;2023-12-20T05:29:23;1.70;;;1.50;;
43152;SDS011;28756;49.064;9.290;2023-12-20T05:31:49;1.50;;;1.40;;
43152;SDS011;28756;49.064;9.290;2023-12-20T05:34:14;2.15;;;1.50;;
43152;SDS011;28756;49.064;9.290;2023-12-20T05:36:40;1.83;;;1.50;;
43152;SDS011;28756;49.064;9.290;2023-12-20T05:39:06;1.55;;;1.45;;
43152;SDS011;28756;49.064;9.290;2023-12-20T05:41:32;1.90;;;1.67;;
43152;SDS011;28756;49.064;9.290;2023-12-20T05:43:58;1.60;;;1.50;;
43152;SDS011;28756;49.064;9.290;2023-12-20T05:46:24;2.00;;;1.60;;
43152;SDS011;28756;49.064;9.290;2023-12-20T05:48:49;1.48;;;1.38;;
43152;SDS011;28756;49.064;9.290;2023-12-20T05:51:16;1.60;;;1.50;;
43152;SDS011;28756;49.064;9.290;2023-12-20T05:53:42;1.60;;;1.50;;
43152;SDS011;28756;49.064;9.290;2023-12-20T05:56:09;1.60;;;1.50;;
43152;SDS011;28756;49.064;9.290;2023-12-20T05:58:34;1.90;;;1.65;;
43152;SDS011;28756;49.064;9.290;2023-12-20T06:01:00;1.42;;;1.33;;
43152;SDS011;28756;49.064;9.290;2023-12-20T06:03:28;1.70;;;1.50;;
43152;SDS011;28756;49.064;9.290;2023-12-20T06:05:54;1.40;;;1.25;;
43152;SDS011;28756;49.064;9.290;2023-12-20T06:08:20;1.45;;;1.35;;
43152;SDS011;28756;49.064;9.290;2023-12-20T06:10:45;1.90;;;1.45;;
43152;SDS011;28756;49.064;9.290;2023-12-20T06:13:11;1.50;;;1.30;;
43152;SDS011;28756;49.064;9.290;2023-12-20T06:15:38;1.60;;;1.40;;
43152;SDS011;28756;49.064;9.290;2023-12-20T06:18:03;1.67;;;1.20;;
43152;SDS011;28756;49.064;9.290;2023-12-20T06:20:29;1.67;;;1.23;;
43152;SDS011;28756;49.064;9.290;2023-12-20T06:22:55;1.40;;;1.30;;
43152;SDS011;28756;49.064;9.290;2023-12-20T06:25:20;2.05;;;1.40;;
43152;SDS011;28756;49.064;9.290;2023-12-20T06:27:46;1.75;;;1.50;;
43152;SDS011;28756;49.064;9.290;2023-12-20T06:30:11;1.90;;;1.52;;
43152;SDS011;28756;49.064;9.290;2023-12-20T06:32:37;1.58;;;1.48;;
43152;SDS011;28756;49.064;9.290;2023-12-20T06:35:04;1.75;;;1.65;;
43152;SDS011;28756;49.064;9.290;2023-12-20T06:37:30;2.10;;;1.90;;
43152;SDS011;28756;49.064;9.290;2023-12-20T06:39:56;2.33;;;2.00;;
43152;SDS011;28756;49.064;9.290;2023-12-20T06:42:22;1.98;;;1.80;;
43152;SDS011;28756;49.064;9.290;2023-12-20T06:44:48;2.78;;;1.90;;
43152;SDS011;28756;49.064;9.290;2023-12-20T06:47:13;2.15;;;1.95;;
43152;SDS011;28756;49.064;9.290;2023-12-20T06:49:39;2.33;;;1.95;;
43152;SDS011;28756;49.064;9.290;2023-12-20T06:52:05;2.35;;;2.15;;
43152;SDS011;28756;49.064;9.290;2023-12-20T06:54:31;2.50;;;2.30;;
43152;SDS011;28756;49.064;9.290;2023-12-20T06:56:59;3.15;;;2.60;;
43152;SDS011;28756;49.064;9.290;2023-12-20T06:59:24;3.17;;;2.88;;
43152;SDS011;28756;49.064;9.290;2023-12-20T07:01:51;4.15;;;2.53;;
43152;SDS011;28756;49.064;9.290;2023-12-20T07:04:17;2.92;;;2.63;;
43152;SDS011;28756;49.064;9.290;2023-12-20T07:06:46;3.70;;;3.40;;
43152;SDS011;28756;49.064;9.290;2023-12-20T07:09:13;3.35;;;3.05;;
43152;SDS011;28756;49.064;9.290;2023-12-20T07:11:38;3.40;;;3.10;;
43152;SDS011;28756;49.064;9.290;2023-12-20T07:14:04;3.28;;;2.97;;
43152;SDS011;28756;49.064;9.290;2023-12-20T07:16:30;3.47;;;3.10;;
43152;SDS011;28756;49.064;9.290;2023-12-20T07:18:55;3.58;;;3.28;;
43152;SDS011;28756;49.064;9.290;2023-12-20T07:21:22;4.13;;;3.67;;
43152;SDS011;28756;49.064;9.290;2023-12-20T07:23:47;3.63;;;3.33;;
43152;SDS011;28756;49.064;9.290;2023-12-20T07:26:13;4.00;;;3.38;;
43152;SDS011;28756;49.064;9.290;2023-12-20T07:28:39;4.10;;;3.70;;
43152;SDS011;28756;49.064;9.290;2023-12-20T07:31:05;4.72;;;3.35;;
43152;SDS011;28756;49.064;9.290;2023-12-20T07:33:31;4.18;;;3.78;;
43152;SDS011;28756;49.064;9.290;2023-12-20T07:35:56;4.40;;;4.00;;
43152;SDS011;28756;49.064;9.290;2023-12-20T07:38:22;4.20;;;3.80;;
43152;SDS011;28756;49.064;9.290;2023-12-20T07:40:48;4.20;;;3.67;;
43152;SDS011;28756;49.064;9.290;2023-12-20T07:43:13;4.28;;;3.85;;
43152;SDS011;28756;49.064;9.290;2023-12-20T07:45:39;4.55;;;3.90;;
43152;SDS011;28756;49.064;9.290;2023-12-20T07:48:05;4.18;;;3.78;;
43152;SDS011;28756;49.064;9.290;2023-12-20T07:50:31;4.18;;;3.78;;
43152;SDS011;28756;49.064;9.290;2023-12-20T07:52:57;3.70;;;3.38;;
43152;SDS011;28756;49.064;9.290;2023-12-20T07:55:24;3.80;;;3.40;;
43152;SDS011;28756;49.064;9.290;2023-12-20T07:57:50;3.95;;;3.60;;
43152;SDS011;28756;49.064;9.290;2023-12-20T08:00:15;3.92;;;3.58;;
43152;SDS011;28756;49.064;9.290;2023-12-20T08:02:41;4.40;;;3.33;;
43152;SDS011;28756;49.064;9.290;2023-12-20T08:05:07;5.03;;;3.88;;
43152;SDS011;28756;49.064;9.290;2023-12-20T08:07:33;4.13;;;3.50;;
43152;SDS011;28756;49.064;9.290;2023-12-20T08:09:58;3.60;;;3.25;;
43152;SDS011;28756;49.064;9.290;2023-12-20T08:12:24;3.65;;;3.30;;
43152;SDS011;28756;49.064;9.290;2023-12-20T08:14:52;3.60;;;3.30;;
43152;SDS011;28756;49.064;9.290;2023-12-20T08:17:18;3.95;;;3.55;;
43152;SDS011;28756;49.064;9.290;2023-12-20T08:19:44;4.07;;;3.67;;
43152;SDS011;28756;49.064;9.290;2023-12-20T08:22:09;3.67;;;3.38;;
43152;SDS011;28756;49.064;9.290;2023-12-20T08:24:35;3.58;;;3.05;;
43152;SDS011;28756;49.064;9.290;2023-12-20T08:27:01;4.60;;;3.17;;
43152;SDS011;28756;49.064;9.290;2023-12-20T08:29:26;3.58;;;3.25;;
43152;SDS011;28756;49.064;9.290;2023-12-20T08:31:52;3.85;;;3.45;;
43152;SDS011;28756;49.064;9.290;2023-12-20T08:34:19;4.20;;;3.33;;
43152;SDS011;28756;49.064;9.290;2023-12-20T08:36:44;3.63;;;3.33;;
43152;SDS011;28756;49.064;9.290;2023-12-20T08:39:10;3.30;;;3.00;;
43152;SDS011;28756;49.064;9.290;2023-12-20T08:41:35;3.65;;;3.30;;
43152;SDS011;28756;49.064;9.290;2023-12-20T08:44:02;3.20;;;2.90;;
43152;SDS011;28756;49.064;9.290;2023-12-20T08:46:27;5.40;;;3.60;;
43152;SDS011;28756;49.064;9.290;2023-12-20T08:48:53;3.95;;;2.80;;
43152;SDS011;28756;49.064;9.290;2023-12-20T08:51:18;4.88;;;3.05;;
43152;SDS011;28756;49.064;9.290;2023-12-20T08:53:44;3.63;;;2.90;;
43152;SDS011;28756;49.064;9.290;2023-12-20T08:56:11;4.03;;;2.67;;
43152;SDS011;28756;49.064;9.290;2023-12-20T08:58:37;3.53;;;2.78;;
43152;SDS011;28756;49.064;9.290;2023-12-20T09:01:02;2.50;;;2.30;;
43152;SDS011;28756;49.064;9.290;2023-12-20T09:03:28;3.30;;;2.38;;
43152;SDS011;28756;49.064;9.290;2023-12-20T09:05:53;2.30;;;2.10;;
43152;SDS011;28756;49.064;9.290;2023-12-20T09:08:19;4.93;;;2.17;;
43152;SDS011;28756;49.064;9.290;2023-12-20T09:10:45;3.50;;;1.90;;
43152;SDS011;28756;49.064;9.290;2023-12-20T09:13:10;4.10;;;1.80;;
43152;SDS011;28756;49.064;9.290;2023-12-20T09:15:36;2.97;;;1.77;;
43152;SDS011;28756;49.064;9.290;2023-12-20T09:18:02;2.85;;;1.90;;
43152;SDS011;28756;49.064;9.290;2023-12-20T09:20:28;4.68;;;2.10;;
43152;SDS011;28756;49.064;9.290;2023-12-20T09:22:54;4.15;;;2.03;;
43152;SDS011;28756;49.064;9.290;2023-12-20T09:25:19;3.83;;;2.10;;
43152;SDS011;28756;49.064;9.290;2023-12-20T09:27:45;3.60;;;1.70;;
43152;SDS011;28756;49.064;9.290;2023-12-20T09:30:10;3.28;;;1.45;;
43152;SDS011;28756;49.064;9.290;2023-12-20T09:32:36;4.78;;;1.42;;
43152;SDS011;28756;49.064;9.290;2023-12-20T09:35:02;2.17;;;1.50;;
43152;SDS011;28756;49.064;9.290;2023-12-20T09:37:30;2.05;;;1.60;;
43152;SDS011;28756;49.064;9.290;2023-12-20T09:39:55;3.47;;;1.75;;
43152;SDS011;28756;49.064;9.290;2023-12-20T09:42:24;3.10;;;1.70;;
43152;SDS011;28756;49.064;9.290;2023-12-20T09:44:54;2.95;;;1.80;;
43152;SDS011;28756;49.064;9.290;2023-12-20T09:47:20;2.78;;;1.63;;
43152;SDS011;28756;49.064;9.290;2023-12-20T09:49:49;4.05;;;1.40;;
43152;SDS011;28756;49.064;9.290;2023-12-20T09:52:15;4.30;;;1.80;;
43152;SDS011;28756;49.064;9.290;2023-12-20T09:54:42;4.15;;;1.65;;
43152;SDS011;28756;49.064;9.290;2023-12-20T09:57:09;3.60;;;1.60;;
43152;SDS011;28756;49.064;9.290;2023-12-20T09:59:35;2.78;;;1.45;;
43152;SDS011;28756;49.064;9.290;2023-12-20T10:02:00;2.72;;;1.40;;
43152;SDS011;28756;49.064;9.290;2023-12-20T10:04:28;3.00;;;1.20;;
43152;SDS011;28756;49.064;9.290;2023-12-20T10:06:56;4.20;;;1.63;;
43152;SDS011;28756;49.064;9.290;2023-12-20T10:09:26;3.90;;;1.48;;
43152;SDS011;28756;49.064;9.290;2023-12-20T10:11:54;4.22;;;1.25;;
43152;SDS011;28756;49.064;9.290;2023-12-20T10:14:19;3.05;;;1.48;;
43152;SDS011;28756;49.064;9.290;2023-12-20T10:16:48;5.00;;;1.50;;
43152;SDS011;28756;49.064;9.290;2023-12-20T10:19:15;5.53;;;1.33;;
43152;SDS011;28756;49.064;9.290;2023-12-20T10:21:42;4.90;;;1.23;;
43152;SDS011;28756;49.064;9.290;2023-12-20T10:24:08;4.93;;;1.40;;
43152;SDS011;28756;49.064;9.290;2023-12-20T10:26:33;2.92;;;1.08;;
43152;SDS011;28756;49.064;9.290;2023-12-20T10:29:00;3.05;;;1.13;;
43152;SDS011;28756;49.064;9.290;2023-12-20T10:31:30;6.28;;;1.23;;
43152;SDS011;28756;49.064;9.290;2023-12-20T10:33:57;4.72;;;1.30;;
43152;SDS011;28756;49.064;9.290;2023-12-20T10:36:24;4.78;;;1.33;;
43152;SDS011;28756;49.064;9.290;2023-12-20T10:38:52;2.80;;;1.00;;
43152;SDS011;28756;49.064;9.290;2023-12-20T10:41:19;5.32;;;1.20;;
43152;SDS011;28756;49.064;9.290;2023-12-20T10:43:50;9.40;;;2.25;;
43152;SDS011;28756;49.064;9.290;2023-12-20T10:46:16;3.28;;;1.00;;
43152;SDS011;28756;49.064;9.290;2023-12-20T10:48:44;3.28;;;1.10;;
43152;SDS011;28756;49.064;9.290;2023-12-20T10:51:10;5.15;;;1.30;;
43152;SDS011;28756;49.064;9.290;2023-12-20T10:53:36;6.05;;;1.80;;
43152;SDS011;28756;49.064;9.290;2023-12-20T10:56:02;7.57;;;1.55;;
43152;SDS011;28756;49.064;9.290;2023-12-20T10:58:28;3.40;;;1.08;;
43152;SDS011;28756;49.064;9.290;2023-12-20T11:00:58;3.20;;;1.00;;
43152;SDS011;28756;49.064;9.290;2023-12-20T11:03:26;3.05;;;0.90;;
43152;SDS011;28756;49.064;9.290;2023-12-20T11:06:03;3.78;;;1.00;;
43152;SDS011;28756;49.064;9.290;2023-12-20T11:11:29;4.22;;;1.02;;
43152;SDS011;28756;49.064;9.290;2023-12-20T11:14:01;6.03;;;1.20;;
43152;SDS011;28756;49.064;9.290;2023-12-20T11:16:31;4.53;;;1.10;;
43152;SDS011;28756;49.064;9.290;2023-12-20T11:18:57;2.88;;;1.08;;
43152;SDS011;28756;49.064;9.290;2023-12-20T11:21:22;5.35;;;1.30;;
43152;SDS011;28756;49.064;9.290;2023-12-20T11:23:48;3.35;;;1.02;;
43152;SDS011;28756;49.064;9.290;2023-12-20T11:26:15;3.42;;;0.93;;
43152;SDS011;28756;49.064;9.290;2023-12-20T11:28:42;3.58;;;1.00;;
43152;SDS011;28756;49.064;9.290;2023-12-20T11:31:08;7.20;;;1.40;;
43152;SDS011;28756;49.064;9.290;2023-12-20T11:33:36;4.30;;;1.40;;
43152;SDS011;28756;49.064;9.290;2023-12-20T11:36:02;4.65;;;1.10;;
43152;SDS011;28756;49.064;9.290;2023-12-20T11:38:38;4.85;;;1.48;;
43152;SDS011;28756;49.064;9.290;2023-12-20T11:41:07;6.20;;;1.05;;
43152;SDS011;28756;49.064;9.290;2023-12-20T11:43:36;4.40;;;1.40;;
43152;SDS011;28756;49.064;9.290;2023-12-20T11:46:05;7.88;;;1.38;;
43152;SDS011;28756;49.064;9.290;2023-12-20T11:48:32;4.97;;;1.25;;
43152;SDS011;28756;49.064;9.290;2023-12-20T11:50:59;4.45;;;1.40;;
43152;SDS011;28756;49.064;9.290;2023-12-20T11:53:25;3.63;;;1.20;;
43152;SDS011;28756;49.064;9.290;2023-12-20T11:55:50;6.15;;;1.50;;
43152;SDS011;28756;49.064;9.290;2023-12-20T11:58:16;6.65;;;1.60;;
43152;SDS011;28756;49.064;9.290;2023-12-20T12:00:42;4.85;;;1.63;;
43152;SDS011;28756;49.064;9.290;2023-12-20T12:03:08;7.28;;;1.65;;
43152;SDS011;28756;49.064;9.290;2023-12-20T12:05:34;5.35;;;1.50;;
43152;SDS011;28756;49.064;9.290;2023-12-20T12:08:00;3.92;;;1.50;;
43152;SDS011;28756;49.064;9.290;2023-12-20T12:10:27;5.53;;;1.92;;
43152;SDS011;28756;49.064;9.290;2023-12-20T12:12:53;3.92;;;1.42;;
43152;SDS011;28756;49.064;9.290;2023-12-20T12:15:19;7.40;;;1.60;;
43152;SDS011;28756;49.064;9.290;2023-12-20T12:17:52;5.50;;;1.50;;
43152;SDS011;28756;49.064;9.290;2023-12-20T12:20:21;3.75;;;1.52;;
43152;SDS011;28756;49.064;9.290;2023-12-20T12:23:00;6.30;;;1.45;;
43152;SDS011;28756;49.064;9.290;2023-12-20T12:25:28;4.00;;;1.50;;
43152;SDS011;28756;49.064;9.290;2023-12-20T12:27:55;4.85;;;1.35;;
43152;SDS011;28756;49.064;9.290;2023-12-20T12:30:21;7.07;;;1.50;;
43152;SDS011;28756;49.064;9.290;2023-12-20T12:32:47;5.97;;;1.80;;
43152;SDS011;28756;49.064;9.290;2023-12-20T12:35:13;6.65;;;2.10;;
43152;SDS011;28756;49.064;9.290;2023-12-20T12:37:39;3.63;;;1.50;;
43152;SDS011;28756;49.064;9.290;2023-12-20T12:40:06;4.80;;;1.65;;
43152;SDS011;28756;49.064;9.290;2023-12-20T12:42:35;3.30;;;1.30;;
43152;SDS011;28756;49.064;9.290;2023-12-20T12:45:01;6.30;;;1.45;;
43152;SDS011;28756;49.064;9.290;2023-12-20T12:47:26;5.72;;;1.60;;
43152;SDS011;28756;49.064;9.290;2023-12-20T12:49:52;4.03;;;1.60;;
43152;SDS011;28756;49.064;9.290;2023-12-20T12:52:18;4.05;;;1.60;;
43152;SDS011;28756;49.064;9.290;2023-12-20T12:54:44;3.60;;;1.60;;
43152;SDS011;28756;49.064;9.290;2023-12-20T12:57:10;5.50;;;1.63;;
43152;SDS011;28756;49.064;9.290;2023-12-20T12:59:36;5.13;;;1.88;;
43152;SDS011;28756;49.064;9.290;2023-12-20T13:02:02;3.95;;;1.60;;
43152;SDS011;28756;49.064;9.290;2023-12-20T13:04:27;4.75;;;1.58;;
43152;SDS011;28756;49.064;9.290;2023-12-20T13:06:53;7.15;;;1.75;;
43152;SDS011;28756;49.064;9.290;2023-12-20T13:09:18;3.58;;;1.50;;
43152;SDS011;28756;49.064;9.290;2023-12-20T13:11:44;5.70;;;1.77;;
43152;SDS011;28756;49.064;9.290;2023-12-20T13:14:10;4.70;;;1.50;;
43152;SDS011;28756;49.064;9.290;2023-12-20T13:16:40;5.88;;;1.85;;
43152;SDS011;28756;49.064;9.290;2023-12-20T13:19:06;5.15;;;1.60;;
43152;SDS011;28756;49.064;9.290;2023-12-20T13:21:32;5.32;;;1.70;;
43152;SDS011;28756;49.064;9.290;2023-12-20T13:23:57;5.05;;;1.50;;
43152;SDS011;28756;49.064;9.290;2023-12-20T13:26:23;5.38;;;1.77;;
43152;SDS011;28756;49.064;9.290;2023-12-20T13:28:52;5.55;;;1.45;;
43152;SDS011;28756;49.064;9.290;2023-12-20T13:31:19;4.63;;;1.40;;
43152;SDS011;28756;49.064;9.290;2023-12-20T13:33:45;5.15;;;1.35;;
43152;SDS011;28756;49.064;9.290;2023-12-20T13:36:11;5.70;;;1.65;;
43152;SDS011;28756;49.064;9.290;2023-12-20T13:38:39;4.80;;;1.67;;
43152;SDS011;28756;49.064;9.290;2023-12-20T13:41:05;7.10;;;1.85;;
43152;SDS011;28756;49.064;9.290;2023-12-20T13:43:31;6.65;;;1.80;;
43152;SDS011;28756;49.064;9.290;2023-12-20T13:45:57;3.30;;;1.73;;
43152;SDS011;28756;49.064;9.290;2023-12-20T13:48:23;4.68;;;1.90;;
43152;SDS011;28756;49.064;9.290;2023-12-20T13:50:49;6.28;;;2.28;;
43152;SDS011;28756;49.064;9.290;2023-12-20T13:53:15;4.45;;;1.60;;
43152;SDS011;28756;49.064;9.290;2023-12-20T13:55:40;6.40;;;1.80;;
43152;SDS011;28756;49.064;9.290;2023-12-20T13:58:06;5.90;;;1.58;;
43152;SDS011;28756;49.064;9.290;2023-12-20T14:00:31;8.05;;;1.58;;
43152;SDS011;28756;49.064;9.290;2023-12-20T14:02:57;5.38;;;1.90;;
43152;SDS011;28756;49.064;9.290;2023-12-20T14:05:23;4.28;;;1.48;;
43152;SDS011;28756;49.064;9.290;2023-12-20T14:07:49;6.05;;;1.77;;
43152;SDS011;28756;49.064;9.290;2023-12-20T14:10:15;3.83;;;1.50;;
43152;SDS011;28756;49.064;9.290;2023-12-20T14:12:41;8.05;;;1.67;;
43152;SDS011;28756;49.064;9.290;2023-12-20T14:15:06;7.15;;;2.60;;
43152;SDS011;28756;49.064;9.290;2023-12-20T14:17:35;3.97;;;1.48;;
43152;SDS011;28756;49.064;9.290;2023-12-20T14:20:05;4.40;;;1.85;;
43152;SDS011;28756;49.064;9.290;2023-12-20T14:22:31;3.60;;;1.55;;
43152;SDS011;28756;49.064;9.290;2023-12-20T14:24:57;4.30;;;1.73;;
43152;SDS011;28756;49.064;9.290;2023-12-20T14:27:23;4.80;;;1.70;;
43152;SDS011;28756;49.064;9.290;2023-12-20T14:29:50;3.78;;;1.75;;
43152;SDS011;28756;49.064;9.290;2023-12-20T14:32:16;5.40;;;1.80;;
43152;SDS011;28756;49.064;9.290;2023-12-20T14:34:41;6.40;;;1.98;;
43152;SDS011;28756;49.064;9.290;2023-12-20T14:37:07;4.70;;;1.60;;
43152;SDS011;28756;49.064;9.290;2023-12-20T14:39:33;4.68;;;1.90;;
43152;SDS011;28756;49.064;9.290;2023-12-20T14:41:58;6.90;;;1.80;;
43152;SDS011;28756;49.064;9.290;2023-12-20T14:44:24;4.93;;;1.58;;